sensor_id;sensor_type;location;lat;lon;timestamp;P1;durP1;ratioP1;P2;durP2;ratioP2
61483;SDS011;47349;55.640;37.692;2022-09-12T04:26:52;26.02;;;15.57;;
61483;SDS011;47349;55.640;37.692;2022-09-12T04:29:33;22.02;;;15.27;;
61483;SDS011;47349;55.640;37.692;2022-09-12T04:32:17;25.15;;;15.82;;
61483;SDS011;47349;55.640;37.692;2022-09-12T04:35:21;26.95;;;16.08;;
61483;SDS011;47349;55.640;37.692;2022-09-12T04:38:05;24.58;;;15.77;;
61483;SDS011;47349;55.640;37.692;2022-09-12T04:40:37;23.48;;;16.08;;
61483;SDS011;47349;55.640;37.692;2022-09-12T04:43:20;24.15;;;14.75;;
61483;SDS011;47349;55.640;37.692;2022-09-12T04:45:52;24.40;;;15.35;;
61483;SDS011;47349;55.640;37.692;2022-09-12T04:48:43;24.30;;;14.60;;
61483;SDS011;47349;55.640;37.692;2022-09-12T04:51:29;17.75;;;14.55;;
61483;SDS011;47349;55.640;37.692;2022-09-12T04:54:29;20.45;;;14.75;;
61483;SDS011;47349;55.640;37.692;2022-09-12T04:57:09;19.42;;;13.52;;
61483;SDS011;47349;55.640;37.692;2022-09-12T04:59:58;17.77;;;13.35;;
61483;SDS011;47349;55.640;37.692;2022-09-12T05:02:43;16.85;;;12.80;;
61483;SDS011;47349;55.640;37.692;2022-09-12T05:05:58;17.48;;;12.10;;
61483;SDS011;47349;55.640;37.692;2022-09-12T05:08:47;18.33;;;11.85;;
61483;SDS011;47349;55.640;37.692;2022-09-12T05:11:32;16.38;;;11.55;;
61483;SDS011;47349;55.640;37.692;2022-09-12T05:14:22;17.98;;;11.77;;
61483;SDS011;47349;55.640;37.692;2022-09-12T13:13:50;18.13;;;11.65;;
61483;SDS011;47349;55.640;37.692;2022-09-12T13:17:04;14.68;;;9.90;;
61483;SDS011;47349;55.640;37.692;2022-09-12T13:20:18;20.92;;;10.23;;
61483;SDS011;47349;55.640;37.692;2022-09-12T14:25:37;10.10;;;6.47;;
61483;SDS011;47349;55.640;37.692;2022-09-12T14:33:16;11.57;;;5.43;;
61483;SDS011;47349;55.640;37.692;2022-09-12T14:36:26;8.60;;;5.63;;
61483;SDS011;47349;55.640;37.692;2022-09-12T14:43:32;8.88;;;5.93;;
61483;SDS011;47349;55.640;37.692;2022-09-12T14:47:09;9.70;;;5.82;;
61483;SDS011;47349;55.640;37.692;2022-09-12T15:15:32;12.57;;;5.40;;
61483;SDS011;47349;55.640;37.692;2022-09-12T15:18:11;8.73;;;5.25;;
61483;SDS011;47349;55.640;37.692;2022-09-12T15:20:40;8.60;;;5.55;;
61483;SDS011;47349;55.640;37.692;2022-09-12T15:23:19;8.43;;;5.70;;
61483;SDS011;47349;55.640;37.692;2022-09-12T15:26:03;6.90;;;5.13;;
61483;SDS011;47349;55.640;37.692;2022-09-12T15:28:32;6.35;;;4.50;;
61483;SDS011;47349;55.640;37.692;2022-09-12T15:31:03;7.00;;;5.18;;
61483;SDS011;47349;55.640;37.692;2022-09-12T15:33:33;7.45;;;4.80;;
61483;SDS011;47349;55.640;37.692;2022-09-12T15:36:08;9.27;;;6.00;;
61483;SDS011;47349;55.640;37.692;2022-09-12T15:38:39;10.57;;;5.38;;
61483;SDS011;47349;55.640;37.692;2022-09-12T15:41:12;11.18;;;6.03;;
61483;SDS011;47349;55.640;37.692;2022-09-12T15:43:44;7.82;;;5.68;;
61483;SDS011;47349;55.640;37.692;2022-09-12T15:46:13;9.45;;;5.90;;
61483;SDS011;47349;55.640;37.692;2022-09-12T15:48:44;9.55;;;5.60;;
61483;SDS011;47349;55.640;37.692;2022-09-12T15:51:36;6.78;;;5.50;;
61483;SDS011;47349;55.640;37.692;2022-09-12T15:57:29;6.68;;;4.93;;
61483;SDS011;47349;55.640;37.692;2022-09-12T16:00:17;8.30;;;5.60;;
61483;SDS011;47349;55.640;37.692;2022-09-12T16:03:03;9.15;;;5.07;;
61483;SDS011;47349;55.640;37.692;2022-09-12T16:05:47;7.20;;;5.45;;
61483;SDS011;47349;55.640;37.692;2022-09-12T16:08:32;7.93;;;4.55;;
61483;SDS011;47349;55.640;37.692;2022-09-12T16:11:18;8.57;;;5.40;;
61483;SDS011;47349;55.640;37.692;2022-09-12T16:14:03;6.43;;;4.78;;
61483;SDS011;47349;55.640;37.692;2022-09-12T16:17:02;12.65;;;5.45;;
61483;SDS011;47349;55.640;37.692;2022-09-12T16:19:44;10.95;;;5.35;;
61483;SDS011;47349;55.640;37.692;2022-09-12T16:22:29;9.13;;;5.40;;
61483;SDS011;47349;55.640;37.692;2022-09-12T16:25:13;6.03;;;4.75;;
61483;SDS011;47349;55.640;37.692;2022-09-12T16:27:55;6.93;;;4.72;;
61483;SDS011;47349;55.640;37.692;2022-09-12T16:30:56;7.32;;;5.00;;
61483;SDS011;47349;55.640;37.692;2022-09-12T16:33:53;5.57;;;4.47;;
61483;SDS011;47349;55.640;37.692;2022-09-12T16:36:35;8.30;;;5.13;;
61483;SDS011;47349;55.640;37.692;2022-09-12T16:39:23;8.25;;;4.72;;
61483;SDS011;47349;55.640;37.692;2022-09-12T16:42:11;6.47;;;4.78;;
61483;SDS011;47349;55.640;37.692;2022-09-12T16:44:52;6.50;;;4.85;;
61483;SDS011;47349;55.640;37.692;2022-09-12T16:47:48;8.93;;;5.28;;
61483;SDS011;47349;55.640;37.692;2022-09-12T16:50:31;6.88;;;4.30;;
61483;SDS011;47349;55.640;37.692;2022-09-12T16:53:16;5.38;;;4.70;;
61483;SDS011;47349;55.640;37.692;2022-09-12T16:56:01;7.18;;;5.25;;
61483;SDS011;47349;55.640;37.692;2022-09-12T16:58:46;5.63;;;4.38;;
61483;SDS011;47349;55.640;37.692;2022-09-12T17:01:29;5.30;;;4.32;;
61483;SDS011;47349;55.640;37.692;2022-09-12T17:04:16;7.38;;;4.57;;
61483;SDS011;47349;55.640;37.692;2022-09-12T17:07:43;5.20;;;4.30;;
61483;SDS011;47349;55.640;37.692;2022-09-12T17:10:51;11.70;;;4.68;;
61483;SDS011;47349;55.640;37.692;2022-09-12T17:13:49;7.25;;;5.10;;
61483;SDS011;47349;55.640;37.692;2022-09-12T17:16:43;8.15;;;5.85;;
61483;SDS011;47349;55.640;37.692;2022-09-12T17:19:28;8.23;;;5.25;;
61483;SDS011;47349;55.640;37.692;2022-09-12T17:22:12;7.70;;;5.35;;
61483;SDS011;47349;55.640;37.692;2022-09-12T17:25:33;8.25;;;5.22;;
61483;SDS011;47349;55.640;37.692;2022-09-12T17:28:17;7.00;;;4.70;;
61483;SDS011;47349;55.640;37.692;2022-09-12T17:31:00;7.70;;;4.93;;
61483;SDS011;47349;55.640;37.692;2022-09-12T17:33:46;6.30;;;4.53;;
61483;SDS011;47349;55.640;37.692;2022-09-12T17:36:41;7.68;;;4.80;;
61483;SDS011;47349;55.640;37.692;2022-09-12T17:39:39;7.85;;;5.40;;
61483;SDS011;47349;55.640;37.692;2022-09-12T17:42:31;8.07;;;5.03;;
61483;SDS011;47349;55.640;37.692;2022-09-12T17:45:17;9.95;;;5.05;;
61483;SDS011;47349;55.640;37.692;2022-09-12T17:48:02;8.18;;;5.50;;
61483;SDS011;47349;55.640;37.692;2022-09-12T17:51:24;8.60;;;5.82;;
61483;SDS011;47349;55.640;37.692;2022-09-12T17:54:15;11.63;;;5.25;;
61483;SDS011;47349;55.640;37.692;2022-09-12T17:57:36;7.03;;;4.88;;
61483;SDS011;47349;55.640;37.692;2022-09-12T18:00:45;8.43;;;5.13;;
61483;SDS011;47349;55.640;37.692;2022-09-12T18:03:45;10.43;;;5.63;;
61483;SDS011;47349;55.640;37.692;2022-09-12T18:06:32;11.57;;;5.40;;
61483;SDS011;47349;55.640;37.692;2022-09-12T18:09:17;9.55;;;5.55;;
61483;SDS011;47349;55.640;37.692;2022-09-12T18:12:15;10.05;;;6.05;;
61483;SDS011;47349;55.640;37.692;2022-09-12T18:15:07;7.50;;;5.13;;
61483;SDS011;47349;55.640;37.692;2022-09-12T18:18:24;6.00;;;5.07;;
61483;SDS011;47349;55.640;37.692;2022-09-12T18:21:14;9.85;;;5.63;;
61483;SDS011;47349;55.640;37.692;2022-09-12T18:24:00;7.63;;;4.97;;
61483;SDS011;47349;55.640;37.692;2022-09-12T18:27:05;9.45;;;5.40;;
61483;SDS011;47349;55.640;37.692;2022-09-12T18:29:49;7.85;;;5.30;;
61483;SDS011;47349;55.640;37.692;2022-09-12T18:33:18;7.80;;;5.00;;
61483;SDS011;47349;55.640;37.692;2022-09-12T18:36:21;7.82;;;4.70;;
61483;SDS011;47349;55.640;37.692;2022-09-12T18:39:09;8.77;;;5.53;;
61483;SDS011;47349;55.640;37.692;2022-09-12T18:42:44;8.75;;;5.30;;
61483;SDS011;47349;55.640;37.692;2022-09-12T18:45:50;7.65;;;5.30;;
61483;SDS011;47349;55.640;37.692;2022-09-12T18:48:59;8.25;;;6.32;;
61483;SDS011;47349;55.640;37.692;2022-09-12T18:51:51;8.88;;;5.53;;
61483;SDS011;47349;55.640;37.692;2022-09-12T18:54:50;7.85;;;5.70;;
61483;SDS011;47349;55.640;37.692;2022-09-12T18:57:39;6.85;;;5.35;;
61483;SDS011;47349;55.640;37.692;2022-09-12T19:00:49;6.60;;;5.10;;
61483;SDS011;47349;55.640;37.692;2022-09-12T19:03:55;11.02;;;6.03;;
61483;SDS011;47349;55.640;37.692;2022-09-12T19:07:01;7.93;;;5.60;;
61483;SDS011;47349;55.640;37.692;2022-09-12T19:10:04;6.45;;;5.75;;
61483;SDS011;47349;55.640;37.692;2022-09-12T19:16:20;7.32;;;5.75;;
61483;SDS011;47349;55.640;37.692;2022-09-12T19:19:11;6.25;;;5.40;;
61483;SDS011;47349;55.640;37.692;2022-09-12T19:22:12;8.48;;;5.60;;
61483;SDS011;47349;55.640;37.692;2022-09-12T19:25:01;7.03;;;5.63;;
61483;SDS011;47349;55.640;37.692;2022-09-12T19:28:11;8.85;;;5.88;;
61483;SDS011;47349;55.640;37.692;2022-09-12T19:30:53;7.47;;;6.00;;
61483;SDS011;47349;55.640;37.692;2022-09-12T19:33:37;7.63;;;5.40;;
61483;SDS011;47349;55.640;37.692;2022-09-12T19:36:52;8.30;;;5.88;;
61483;SDS011;47349;55.640;37.692;2022-09-12T19:39:36;7.43;;;5.88;;
61483;SDS011;47349;55.640;37.692;2022-09-12T19:42:36;7.55;;;6.10;;
61483;SDS011;47349;55.640;37.692;2022-09-12T19:45:59;7.22;;;5.28;;
61483;SDS011;47349;55.640;37.692;2022-09-12T19:49:00;8.80;;;5.45;;
61483;SDS011;47349;55.640;37.692;2022-09-12T19:52:24;7.00;;;6.00;;
61483;SDS011;47349;55.640;37.692;2022-09-12T19:55:27;9.25;;;5.50;;
61483;SDS011;47349;55.640;37.692;2022-09-12T19:58:30;6.43;;;5.40;;
61483;SDS011;47349;55.640;37.692;2022-09-12T20:01:31;7.18;;;6.05;;
61483;SDS011;47349;55.640;37.692;2022-09-12T20:04:17;8.15;;;5.97;;
61483;SDS011;47349;55.640;37.692;2022-09-12T20:07:05;11.30;;;6.03;;
61483;SDS011;47349;55.640;37.692;2022-09-12T20:09:52;9.32;;;5.65;;
61483;SDS011;47349;55.640;37.692;2022-09-12T20:12:56;8.18;;;6.72;;
61483;SDS011;47349;55.640;37.692;2022-09-12T20:15:39;8.48;;;5.63;;
61483;SDS011;47349;55.640;37.692;2022-09-12T20:18:25;10.27;;;6.10;;
61483;SDS011;47349;55.640;37.692;2022-09-12T20:21:17;9.68;;;6.05;;
61483;SDS011;47349;55.640;37.692;2022-09-12T20:24:19;8.80;;;5.80;;
61483;SDS011;47349;55.640;37.692;2022-09-12T20:27:04;6.38;;;5.60;;
61483;SDS011;47349;55.640;37.692;2022-09-12T20:30:09;7.25;;;6.07;;
61483;SDS011;47349;55.640;37.692;2022-09-12T20:33:03;8.02;;;5.60;;
61483;SDS011;47349;55.640;37.692;2022-09-12T20:35:46;7.63;;;5.70;;
61483;SDS011;47349;55.640;37.692;2022-09-12T20:38:30;8.23;;;6.00;;
61483;SDS011;47349;55.640;37.692;2022-09-12T20:41:16;10.40;;;5.97;;
61483;SDS011;47349;55.640;37.692;2022-09-12T20:44:04;8.88;;;6.15;;
61483;SDS011;47349;55.640;37.692;2022-09-12T20:46:49;7.85;;;6.03;;
61483;SDS011;47349;55.640;37.692;2022-09-12T20:50:03;10.73;;;6.95;;
61483;SDS011;47349;55.640;37.692;2022-09-12T20:52:54;6.97;;;5.47;;
61483;SDS011;47349;55.640;37.692;2022-09-12T20:55:37;8.00;;;6.18;;
61483;SDS011;47349;55.640;37.692;2022-09-12T20:58:40;8.00;;;6.13;;
61483;SDS011;47349;55.640;37.692;2022-09-12T21:01:43;7.28;;;5.80;;
61483;SDS011;47349;55.640;37.692;2022-09-12T21:04:26;7.93;;;5.95;;
61483;SDS011;47349;55.640;37.692;2022-09-12T21:07:31;8.50;;;5.95;;
61483;SDS011;47349;55.640;37.692;2022-09-12T21:10:15;8.38;;;5.72;;
61483;SDS011;47349;55.640;37.692;2022-09-12T21:12:59;8.40;;;6.50;;
61483;SDS011;47349;55.640;37.692;2022-09-12T21:15:41;10.65;;;6.43;;
61483;SDS011;47349;55.640;37.692;2022-09-12T21:18:40;9.20;;;6.90;;
61483;SDS011;47349;55.640;37.692;2022-09-12T21:21:26;10.20;;;6.60;;
61483;SDS011;47349;55.640;37.692;2022-09-12T21:24:19;10.18;;;6.60;;
61483;SDS011;47349;55.640;37.692;2022-09-12T21:27:02;7.03;;;6.20;;
61483;SDS011;47349;55.640;37.692;2022-09-12T21:30:06;9.32;;;6.60;;
61483;SDS011;47349;55.640;37.692;2022-09-12T21:32:47;9.50;;;6.20;;
61483;SDS011;47349;55.640;37.692;2022-09-12T21:35:32;8.27;;;5.93;;
61483;SDS011;47349;55.640;37.692;2022-09-12T21:38:17;9.15;;;6.40;;
61483;SDS011;47349;55.640;37.692;2022-09-12T21:41:37;10.05;;;6.57;;
61483;SDS011;47349;55.640;37.692;2022-09-12T21:44:40;7.63;;;6.18;;
61483;SDS011;47349;55.640;37.692;2022-09-12T21:47:30;7.00;;;5.90;;
61483;SDS011;47349;55.640;37.692;2022-09-12T21:50:13;11.52;;;6.60;;
61483;SDS011;47349;55.640;37.692;2022-09-12T21:53:01;8.02;;;6.15;;
61483;SDS011;47349;55.640;37.692;2022-09-12T21:55:47;10.50;;;6.25;;
61483;SDS011;47349;55.640;37.692;2022-09-12T21:58:50;9.20;;;6.25;;
61483;SDS011;47349;55.640;37.692;2022-09-12T22:01:35;11.60;;;6.72;;
61483;SDS011;47349;55.640;37.692;2022-09-12T22:04:19;10.18;;;6.13;;
61483;SDS011;47349;55.640;37.692;2022-09-12T22:07:01;8.70;;;6.10;;
61483;SDS011;47349;55.640;37.692;2022-09-12T22:09:43;9.43;;;6.68;;
61483;SDS011;47349;55.640;37.692;2022-09-12T22:12:45;9.02;;;6.15;;
61483;SDS011;47349;55.640;37.692;2022-09-12T22:15:37;11.52;;;6.43;;
61483;SDS011;47349;55.640;37.692;2022-09-12T22:18:23;9.48;;;6.22;;
61483;SDS011;47349;55.640;37.692;2022-09-12T22:21:10;9.23;;;5.70;;
61483;SDS011;47349;55.640;37.692;2022-09-12T22:23:56;7.80;;;5.78;;
61483;SDS011;47349;55.640;37.692;2022-09-12T22:26:58;8.82;;;6.63;;
61483;SDS011;47349;55.640;37.692;2022-09-12T22:29:48;8.60;;;6.78;;
61483;SDS011;47349;55.640;37.692;2022-09-12T22:32:34;8.25;;;6.57;;
61483;SDS011;47349;55.640;37.692;2022-09-12T22:35:17;10.63;;;6.65;;
61483;SDS011;47349;55.640;37.692;2022-09-12T22:38:00;8.02;;;5.70;;
61483;SDS011;47349;55.640;37.692;2022-09-12T22:40:46;8.48;;;6.13;;
61483;SDS011;47349;55.640;37.692;2022-09-12T22:43:33;10.10;;;6.22;;
61483;SDS011;47349;55.640;37.692;2022-09-12T22:46:18;8.25;;;5.78;;
61483;SDS011;47349;55.640;37.692;2022-09-12T22:49:00;8.25;;;5.63;;
61483;SDS011;47349;55.640;37.692;2022-09-12T22:51:46;9.77;;;6.30;;
61483;SDS011;47349;55.640;37.692;2022-09-12T22:54:28;7.65;;;6.20;;
61483;SDS011;47349;55.640;37.692;2022-09-12T22:57:37;9.10;;;7.03;;
61483;SDS011;47349;55.640;37.692;2022-09-12T23:00:19;9.18;;;6.80;;
61483;SDS011;47349;55.640;37.692;2022-09-12T23:03:01;10.20;;;7.65;;
61483;SDS011;47349;55.640;37.692;2022-09-12T23:05:46;12.65;;;7.85;;
61483;SDS011;47349;55.640;37.692;2022-09-12T23:08:29;14.15;;;8.88;;
61483;SDS011;47349;55.640;37.692;2022-09-12T23:11:11;12.18;;;9.02;;
61483;SDS011;47349;55.640;37.692;2022-09-12T23:13:55;11.88;;;8.93;;
61483;SDS011;47349;55.640;37.692;2022-09-12T23:16:39;13.77;;;9.57;;
61483;SDS011;47349;55.640;37.692;2022-09-12T23:19:21;12.80;;;9.93;;
61483;SDS011;47349;55.640;37.692;2022-09-12T23:22:06;12.27;;;9.65;;
61483;SDS011;47349;55.640;37.692;2022-09-12T23:24:47;13.93;;;10.18;;
61483;SDS011;47349;55.640;37.692;2022-09-12T23:27:33;14.02;;;10.15;;
61483;SDS011;47349;55.640;37.692;2022-09-12T23:30:15;12.30;;;8.65;;
61483;SDS011;47349;55.640;37.692;2022-09-12T23:33:02;14.18;;;8.68;;
61483;SDS011;47349;55.640;37.692;2022-09-12T23:35:43;13.25;;;9.35;;
61483;SDS011;47349;55.640;37.692;2022-09-12T23:38:25;13.75;;;8.93;;
61483;SDS011;47349;55.640;37.692;2022-09-12T23:41:09;13.32;;;9.68;;
61483;SDS011;47349;55.640;37.692;2022-09-12T23:43:51;14.60;;;8.65;;
61483;SDS011;47349;55.640;37.692;2022-09-12T23:46:34;14.95;;;9.02;;
61483;SDS011;47349;55.640;37.692;2022-09-12T23:49:17;14.77;;;8.40;;
61483;SDS011;47349;55.640;37.692;2022-09-12T23:51:59;13.93;;;8.52;;
61483;SDS011;47349;55.640;37.692;2022-09-12T23:54:41;11.73;;;8.50;;
61483;SDS011;47349;55.640;37.692;2022-09-12T23:57:22;10.38;;;8.18;;
